sensor_id;sensor_type;location;lat;lon;timestamp;P1;durP1;ratioP1;P2;durP2;ratioP2
47715;SDS011;33476;50.984;3.538;2023-08-20T00:00:06;5.93;;;1.10;;
47715;SDS011;33476;50.984;3.538;2023-08-20T00:02:33;8.13;;;1.27;;
47715;SDS011;33476;50.984;3.538;2023-08-20T00:05:01;5.43;;;0.95;;
47715;SDS011;33476;50.984;3.538;2023-08-20T00:07:29;5.63;;;0.82;;
47715;SDS011;33476;50.984;3.538;2023-08-20T00:09:55;9.70;;;1.33;;
47715;SDS011;33476;50.984;3.538;2023-08-20T00:12:20;5.55;;;1.05;;
47715;SDS011;33476;50.984;3.538;2023-08-20T00:14:54;7.78;;;0.93;;
47715;SDS011;33476;50.984;3.538;2023-08-20T00:17:30;6.45;;;1.00;;
47715;SDS011;33476;50.984;3.538;2023-08-20T00:19:56;8.82;;;1.15;;
47715;SDS011;33476;50.984;3.538;2023-08-20T00:22:22;9.43;;;0.95;;
47715;SDS011;33476;50.984;3.538;2023-08-20T00:24:50;7.25;;;0.75;;
47715;SDS011;33476;50.984;3.538;2023-08-20T00:27:16;8.52;;;0.82;;
47715;SDS011;33476;50.984;3.538;2023-08-20T00:29:42;7.30;;;0.88;;
47715;SDS011;33476;50.984;3.538;2023-08-20T00:32:07;9.73;;;1.15;;
47715;SDS011;33476;50.984;3.538;2023-08-20T00:34:33;10.43;;;0.65;;
47715;SDS011;33476;50.984;3.538;2023-08-20T00:36:58;7.45;;;1.02;;
47715;SDS011;33476;50.984;3.538;2023-08-20T00:39:23;6.57;;;0.88;;
47715;SDS011;33476;50.984;3.538;2023-08-20T00:41:49;8.73;;;0.95;;
47715;SDS011;33476;50.984;3.538;2023-08-20T00:44:14;7.18;;;1.08;;
47715;SDS011;33476;50.984;3.538;2023-08-20T00:46:39;4.55;;;0.63;;
47715;SDS011;33476;50.984;3.538;2023-08-20T00:49:05;6.30;;;0.82;;
47715;SDS011;33476;50.984;3.538;2023-08-20T00:51:32;4.75;;;0.98;;
47715;SDS011;33476;50.984;3.538;2023-08-20T00:53:58;7.57;;;0.82;;
47715;SDS011;33476;50.984;3.538;2023-08-20T00:56:24;7.60;;;1.05;;
47715;SDS011;33476;50.984;3.538;2023-08-20T00:58:50;7.93;;;0.70;;
47715;SDS011;33476;50.984;3.538;2023-08-20T01:01:15;7.57;;;0.75;;
47715;SDS011;33476;50.984;3.538;2023-08-20T01:03:40;5.97;;;0.95;;
47715;SDS011;33476;50.984;3.538;2023-08-20T01:06:12;4.35;;;0.70;;
47715;SDS011;33476;50.984;3.538;2023-08-20T01:08:57;5.90;;;1.00;;
47715;SDS011;33476;50.984;3.538;2023-08-20T01:11:30;6.25;;;0.73;;
47715;SDS011;33476;50.984;3.538;2023-08-20T01:14:13;7.65;;;0.95;;
47715;SDS011;33476;50.984;3.538;2023-08-20T01:16:39;6.05;;;0.85;;
47715;SDS011;33476;50.984;3.538;2023-08-20T01:19:05;8.90;;;0.93;;
47715;SDS011;33476;50.984;3.538;2023-08-20T01:24:07;4.63;;;0.80;;
47715;SDS011;33476;50.984;3.538;2023-08-20T01:27:10;5.78;;;0.90;;
47715;SDS011;33476;50.984;3.538;2023-08-20T01:29:46;6.60;;;0.85;;
47715;SDS011;33476;50.984;3.538;2023-08-20T01:32:12;9.32;;;1.20;;
47715;SDS011;33476;50.984;3.538;2023-08-20T01:34:38;6.05;;;0.90;;
47715;SDS011;33476;50.984;3.538;2023-08-20T01:37:03;8.45;;;0.90;;
47715;SDS011;33476;50.984;3.538;2023-08-20T01:39:29;6.85;;;0.80;;
47715;SDS011;33476;50.984;3.538;2023-08-20T01:41:54;6.88;;;0.63;;
47715;SDS011;33476;50.984;3.538;2023-08-20T01:44:19;6.93;;;0.98;;
47715;SDS011;33476;50.984;3.538;2023-08-20T01:46:45;6.28;;;0.70;;
47715;SDS011;33476;50.984;3.538;2023-08-20T01:49:10;8.23;;;1.25;;
47715;SDS011;33476;50.984;3.538;2023-08-20T01:51:35;4.50;;;0.70;;
47715;SDS011;33476;50.984;3.538;2023-08-20T01:54:01;4.85;;;0.77;;
47715;SDS011;33476;50.984;3.538;2023-08-20T01:56:27;3.75;;;0.95;;
47715;SDS011;33476;50.984;3.538;2023-08-20T01:58:52;5.15;;;0.90;;
47715;SDS011;33476;50.984;3.538;2023-08-20T02:01:18;4.47;;;0.98;;
47715;SDS011;33476;50.984;3.538;2023-08-20T02:03:43;4.22;;;0.90;;
47715;SDS011;33476;50.984;3.538;2023-08-20T02:06:09;5.85;;;0.90;;
47715;SDS011;33476;50.984;3.538;2023-08-20T02:08:34;5.78;;;1.00;;
47715;SDS011;33476;50.984;3.538;2023-08-20T02:11:00;3.33;;;0.80;;
47715;SDS011;33476;50.984;3.538;2023-08-20T02:13:29;6.00;;;0.73;;
47715;SDS011;33476;50.984;3.538;2023-08-20T02:15:59;4.60;;;1.13;;
47715;SDS011;33476;50.984;3.538;2023-08-20T02:18:28;7.38;;;1.17;;
47715;SDS011;33476;50.984;3.538;2023-08-20T02:20:55;5.30;;;0.85;;
47715;SDS011;33476;50.984;3.538;2023-08-20T02:23:20;4.63;;;0.65;;
47715;SDS011;33476;50.984;3.538;2023-08-20T02:25:46;10.18;;;1.00;;
47715;SDS011;33476;50.984;3.538;2023-08-20T02:28:12;6.40;;;0.77;;
47715;SDS011;33476;50.984;3.538;2023-08-20T02:30:41;5.35;;;0.90;;
47715;SDS011;33476;50.984;3.538;2023-08-20T02:33:07;4.15;;;0.52;;
47715;SDS011;33476;50.984;3.538;2023-08-20T02:35:33;7.10;;;0.98;;
47715;SDS011;33476;50.984;3.538;2023-08-20T02:37:59;5.05;;;0.77;;
47715;SDS011;33476;50.984;3.538;2023-08-20T02:40:24;5.45;;;1.02;;
47715;SDS011;33476;50.984;3.538;2023-08-20T02:42:49;5.68;;;0.90;;
47715;SDS011;33476;50.984;3.538;2023-08-20T02:45:15;6.53;;;1.10;;
47715;SDS011;33476;50.984;3.538;2023-08-20T02:47:40;6.25;;;0.80;;
47715;SDS011;33476;50.984;3.538;2023-08-20T02:50:05;8.32;;;0.82;;
47715;SDS011;33476;50.984;3.538;2023-08-20T02:52:31;2.83;;;0.65;;
47715;SDS011;33476;50.984;3.538;2023-08-20T02:54:56;6.22;;;0.77;;
47715;SDS011;33476;50.984;3.538;2023-08-20T02:57:22;5.80;;;1.02;;
47715;SDS011;33476;50.984;3.538;2023-08-20T02:59:47;2.65;;;0.60;;
47715;SDS011;33476;50.984;3.538;2023-08-20T03:02:12;5.80;;;0.60;;
47715;SDS011;33476;50.984;3.538;2023-08-20T03:04:38;7.32;;;1.17;;
47715;SDS011;33476;50.984;3.538;2023-08-20T03:07:03;5.50;;;0.70;;
47715;SDS011;33476;50.984;3.538;2023-08-20T03:09:29;7.07;;;0.73;;
47715;SDS011;33476;50.984;3.538;2023-08-20T03:11:54;5.25;;;0.80;;
47715;SDS011;33476;50.984;3.538;2023-08-20T03:14:20;7.88;;;0.60;;
47715;SDS011;33476;50.984;3.538;2023-08-20T03:16:45;5.57;;;1.15;;
47715;SDS011;33476;50.984;3.538;2023-08-20T03:19:11;6.50;;;0.70;;
47715;SDS011;33476;50.984;3.538;2023-08-20T03:21:38;4.05;;;0.90;;
47715;SDS011;33476;50.984;3.538;2023-08-20T03:24:04;4.15;;;0.60;;
47715;SDS011;33476;50.984;3.538;2023-08-20T03:26:30;2.95;;;0.45;;
47715;SDS011;33476;50.984;3.538;2023-08-20T03:28:55;5.35;;;0.85;;
47715;SDS011;33476;50.984;3.538;2023-08-20T03:31:20;4.15;;;0.52;;
47715;SDS011;33476;50.984;3.538;2023-08-20T03:33:46;5.35;;;0.95;;
47715;SDS011;33476;50.984;3.538;2023-08-20T03:36:11;4.45;;;0.82;;
47715;SDS011;33476;50.984;3.538;2023-08-20T03:38:36;5.30;;;0.70;;
47715;SDS011;33476;50.984;3.538;2023-08-20T03:41:02;6.13;;;1.05;;
47715;SDS011;33476;50.984;3.538;2023-08-20T03:43:28;4.03;;;0.70;;
47715;SDS011;33476;50.984;3.538;2023-08-20T03:45:53;6.65;;;0.98;;
47715;SDS011;33476;50.984;3.538;2023-08-20T03:48:18;6.05;;;0.75;;
47715;SDS011;33476;50.984;3.538;2023-08-20T03:50:44;4.00;;;0.80;;
47715;SDS011;33476;50.984;3.538;2023-08-20T03:53:09;3.92;;;0.68;;
47715;SDS011;33476;50.984;3.538;2023-08-20T03:55:35;4.30;;;0.60;;
47715;SDS011;33476;50.984;3.538;2023-08-20T03:58:00;3.92;;;0.45;;
47715;SDS011;33476;50.984;3.538;2023-08-20T04:00:25;8.88;;;1.10;;
47715;SDS011;33476;50.984;3.538;2023-08-20T04:02:51;6.13;;;0.80;;
47715;SDS011;33476;50.984;3.538;2023-08-20T04:05:16;4.28;;;0.80;;
47715;SDS011;33476;50.984;3.538;2023-08-20T04:07:42;10.05;;;1.02;;
47715;SDS011;33476;50.984;3.538;2023-08-20T04:10:07;5.50;;;0.70;;
47715;SDS011;33476;50.984;3.538;2023-08-20T04:12:33;3.17;;;0.50;;
47715;SDS011;33476;50.984;3.538;2023-08-20T04:14:58;2.80;;;0.50;;
47715;SDS011;33476;50.984;3.538;2023-08-20T04:17:23;5.72;;;0.88;;
47715;SDS011;33476;50.984;3.538;2023-08-20T04:19:49;4.22;;;1.13;;
47715;SDS011;33476;50.984;3.538;2023-08-20T04:22:15;2.97;;;0.50;;
47715;SDS011;33476;50.984;3.538;2023-08-20T04:24:40;4.57;;;0.95;;
47715;SDS011;33476;50.984;3.538;2023-08-20T04:27:05;4.45;;;1.00;;
47715;SDS011;33476;50.984;3.538;2023-08-20T04:29:31;3.60;;;0.88;;
47715;SDS011;33476;50.984;3.538;2023-08-20T04:31:57;4.78;;;0.70;;
47715;SDS011;33476;50.984;3.538;2023-08-20T04:34:23;2.78;;;0.70;;
47715;SDS011;33476;50.984;3.538;2023-08-20T04:36:48;4.90;;;0.80;;
47715;SDS011;33476;50.984;3.538;2023-08-20T04:39:13;2.50;;;0.90;;
47715;SDS011;33476;50.984;3.538;2023-08-20T04:41:39;2.75;;;0.70;;
47715;SDS011;33476;50.984;3.538;2023-08-20T04:44:04;4.55;;;0.82;;
47715;SDS011;33476;50.984;3.538;2023-08-20T04:46:30;3.42;;;1.08;;
47715;SDS011;33476;50.984;3.538;2023-08-20T04:48:55;3.15;;;0.93;;
47715;SDS011;33476;50.984;3.538;2023-08-20T04:51:20;3.05;;;0.90;;
47715;SDS011;33476;50.984;3.538;2023-08-20T04:53:46;3.13;;;0.85;;
47715;SDS011;33476;50.984;3.538;2023-08-20T04:56:12;4.88;;;0.85;;
47715;SDS011;33476;50.984;3.538;2023-08-20T04:58:38;3.45;;;0.77;;
47715;SDS011;33476;50.984;3.538;2023-08-20T05:01:04;2.45;;;0.63;;
47715;SDS011;33476;50.984;3.538;2023-08-20T05:03:30;6.13;;;0.85;;
47715;SDS011;33476;50.984;3.538;2023-08-20T05:05:56;4.65;;;1.10;;
47715;SDS011;33476;50.984;3.538;2023-08-20T05:08:21;5.35;;;0.80;;
47715;SDS011;33476;50.984;3.538;2023-08-20T05:10:47;6.80;;;1.08;;
47715;SDS011;33476;50.984;3.538;2023-08-20T05:13:14;3.72;;;0.73;;
47715;SDS011;33476;50.984;3.538;2023-08-20T05:15:40;5.47;;;0.80;;
47715;SDS011;33476;50.984;3.538;2023-08-20T05:18:05;3.50;;;0.70;;
47715;SDS011;33476;50.984;3.538;2023-08-20T05:20:30;4.55;;;0.70;;
47715;SDS011;33476;50.984;3.538;2023-08-20T05:22:56;2.13;;;0.52;;
47715;SDS011;33476;50.984;3.538;2023-08-20T05:25:21;3.15;;;0.60;;
47715;SDS011;33476;50.984;3.538;2023-08-20T05:27:47;5.85;;;1.38;;
47715;SDS011;33476;50.984;3.538;2023-08-20T05:30:12;3.92;;;0.60;;
47715;SDS011;33476;50.984;3.538;2023-08-20T05:32:38;3.10;;;0.82;;
47715;SDS011;33476;50.984;3.538;2023-08-20T05:35:03;4.38;;;1.00;;
47715;SDS011;33476;50.984;3.538;2023-08-20T05:37:29;5.47;;;0.90;;
47715;SDS011;33476;50.984;3.538;2023-08-20T05:39:55;3.38;;;0.80;;
47715;SDS011;33476;50.984;3.538;2023-08-20T05:42:20;4.10;;;1.20;;
47715;SDS011;33476;50.984;3.538;2023-08-20T05:44:45;3.40;;;0.60;;
47715;SDS011;33476;50.984;3.538;2023-08-20T05:47:11;4.20;;;0.93;;
47715;SDS011;33476;50.984;3.538;2023-08-20T05:49:36;5.63;;;1.40;;
47715;SDS011;33476;50.984;3.538;2023-08-20T05:52:01;5.63;;;0.88;;
47715;SDS011;33476;50.984;3.538;2023-08-20T05:54:27;1.95;;;0.80;;
47715;SDS011;33476;50.984;3.538;2023-08-20T05:56:53;4.13;;;1.10;;
47715;SDS011;33476;50.984;3.538;2023-08-20T05:59:18;3.78;;;1.00;;
47715;SDS011;33476;50.984;3.538;2023-08-20T06:01:43;4.20;;;1.10;;
47715;SDS011;33476;50.984;3.538;2023-08-20T06:04:09;4.65;;;1.05;;
47715;SDS011;33476;50.984;3.538;2023-08-20T06:06:34;5.70;;;1.08;;
47715;SDS011;33476;50.984;3.538;2023-08-20T06:09:00;5.07;;;1.20;;
47715;SDS011;33476;50.984;3.538;2023-08-20T06:11:25;4.50;;;1.00;;
47715;SDS011;33476;50.984;3.538;2023-08-20T06:13:51;6.05;;;1.48;;
47715;SDS011;33476;50.984;3.538;2023-08-20T06:16:16;7.35;;;1.38;;
47715;SDS011;33476;50.984;3.538;2023-08-20T06:18:41;6.63;;;0.93;;
47715;SDS011;33476;50.984;3.538;2023-08-20T06:21:06;6.72;;;1.30;;
47715;SDS011;33476;50.984;3.538;2023-08-20T06:23:32;3.38;;;0.80;;
47715;SDS011;33476;50.984;3.538;2023-08-20T06:26:00;3.65;;;0.88;;
47715;SDS011;33476;50.984;3.538;2023-08-20T06:28:26;3.83;;;0.70;;
47715;SDS011;33476;50.984;3.538;2023-08-20T06:30:51;3.25;;;0.90;;
47715;SDS011;33476;50.984;3.538;2023-08-20T06:33:16;6.45;;;1.05;;
47715;SDS011;33476;50.984;3.538;2023-08-20T06:35:42;3.38;;;0.80;;
47715;SDS011;33476;50.984;3.538;2023-08-20T06:38:07;6.85;;;0.90;;
47715;SDS011;33476;50.984;3.538;2023-08-20T06:40:33;4.85;;;1.05;;
47715;SDS011;33476;50.984;3.538;2023-08-20T06:42:58;5.10;;;1.42;;
47715;SDS011;33476;50.984;3.538;2023-08-20T06:45:23;6.25;;;1.45;;
47715;SDS011;33476;50.984;3.538;2023-08-20T06:47:49;7.70;;;1.40;;
47715;SDS011;33476;50.984;3.538;2023-08-20T06:50:14;5.13;;;1.20;;
47715;SDS011;33476;50.984;3.538;2023-08-20T06:52:40;4.75;;;1.33;;
47715;SDS011;33476;50.984;3.538;2023-08-20T06:55:05;8.77;;;1.48;;
47715;SDS011;33476;50.984;3.538;2023-08-20T06:57:31;7.85;;;0.93;;
47715;SDS011;33476;50.984;3.538;2023-08-20T06:59:56;6.03;;;1.25;;
47715;SDS011;33476;50.984;3.538;2023-08-20T07:02:22;4.85;;;1.38;;
47715;SDS011;33476;50.984;3.538;2023-08-20T07:04:47;5.97;;;1.58;;
47715;SDS011;33476;50.984;3.538;2023-08-20T07:07:13;5.68;;;1.45;;
47715;SDS011;33476;50.984;3.538;2023-08-20T07:09:39;6.40;;;1.83;;
47715;SDS011;33476;50.984;3.538;2023-08-20T07:12:05;12.23;;;1.83;;
47715;SDS011;33476;50.984;3.538;2023-08-20T07:14:31;4.93;;;1.35;;
47715;SDS011;33476;50.984;3.538;2023-08-20T07:16:56;3.50;;;1.20;;
47715;SDS011;33476;50.984;3.538;2023-08-20T07:19:21;3.80;;;1.27;;
47715;SDS011;33476;50.984;3.538;2023-08-20T07:21:47;5.50;;;1.02;;
47715;SDS011;33476;50.984;3.538;2023-08-20T07:24:13;6.55;;;1.15;;
47715;SDS011;33476;50.984;3.538;2023-08-20T07:26:38;3.15;;;1.00;;
47715;SDS011;33476;50.984;3.538;2023-08-20T07:29:04;7.80;;;0.82;;
47715;SDS011;33476;50.984;3.538;2023-08-20T07:31:30;6.30;;;1.17;;
47715;SDS011;33476;50.984;3.538;2023-08-20T07:33:57;11.30;;;1.05;;
47715;SDS011;33476;50.984;3.538;2023-08-20T07:36:24;6.38;;;0.63;;
47715;SDS011;33476;50.984;3.538;2023-08-20T07:38:51;7.93;;;1.38;;
47715;SDS011;33476;50.984;3.538;2023-08-20T07:41:17;5.60;;;0.80;;
47715;SDS011;33476;50.984;3.538;2023-08-20T07:43:44;5.93;;;0.80;;
47715;SDS011;33476;50.984;3.538;2023-08-20T07:46:10;6.60;;;0.82;;
47715;SDS011;33476;50.984;3.538;2023-08-20T07:48:36;3.65;;;0.75;;
47715;SDS011;33476;50.984;3.538;2023-08-20T07:51:02;3.60;;;0.90;;
47715;SDS011;33476;50.984;3.538;2023-08-20T07:53:28;6.60;;;1.00;;
47715;SDS011;33476;50.984;3.538;2023-08-20T07:55:55;5.15;;;0.88;;
47715;SDS011;33476;50.984;3.538;2023-08-20T07:58:20;6.90;;;1.25;;
47715;SDS011;33476;50.984;3.538;2023-08-20T08:00:46;7.38;;;1.20;;
47715;SDS011;33476;50.984;3.538;2023-08-20T08:03:11;5.72;;;1.17;;
47715;SDS011;33476;50.984;3.538;2023-08-20T08:05:39;5.45;;;0.90;;
47715;SDS011;33476;50.984;3.538;2023-08-20T08:08:17;4.45;;;1.48;;
47715;SDS011;33476;50.984;3.538;2023-08-20T08:10:43;3.78;;;0.77;;
47715;SDS011;33476;50.984;3.538;2023-08-20T08:13:10;6.32;;;0.70;;
47715;SDS011;33476;50.984;3.538;2023-08-20T08:15:36;2.65;;;0.85;;
47715;SDS011;33476;50.984;3.538;2023-08-20T08:18:02;5.05;;;0.65;;
47715;SDS011;33476;50.984;3.538;2023-08-20T08:20:28;4.90;;;0.60;;
47715;SDS011;33476;50.984;3.538;2023-08-20T08:22:53;4.80;;;0.90;;
47715;SDS011;33476;50.984;3.538;2023-08-20T08:25:19;5.40;;;0.50;;
47715;SDS011;33476;50.984;3.538;2023-08-20T08:27:44;4.88;;;0.80;;
47715;SDS011;33476;50.984;3.538;2023-08-20T08:30:10;4.60;;;0.60;;
47715;SDS011;33476;50.984;3.538;2023-08-20T08:32:36;6.38;;;0.88;;
47715;SDS011;33476;50.984;3.538;2023-08-20T08:35:01;5.85;;;0.55;;
47715;SDS011;33476;50.984;3.538;2023-08-20T08:37:27;4.07;;;1.00;;
47715;SDS011;33476;50.984;3.538;2023-08-20T08:39:52;3.17;;;0.60;;
47715;SDS011;33476;50.984;3.538;2023-08-20T08:42:17;3.97;;;0.45;;
47715;SDS011;33476;50.984;3.538;2023-08-20T08:44:47;4.20;;;0.50;;
47715;SDS011;33476;50.984;3.538;2023-08-20T08:47:14;2.47;;;0.40;;
47715;SDS011;33476;50.984;3.538;2023-08-20T08:49:40;6.28;;;0.90;;
47715;SDS011;33476;50.984;3.538;2023-08-20T08:52:05;4.32;;;0.52;;
47715;SDS011;33476;50.984;3.538;2023-08-20T08:54:32;8.70;;;0.70;;
47715;SDS011;33476;50.984;3.538;2023-08-20T08:56:58;4.30;;;0.88;;
47715;SDS011;33476;50.984;3.538;2023-08-20T08:59:23;2.88;;;0.30;;
47715;SDS011;33476;50.984;3.538;2023-08-20T09:01:49;4.95;;;0.40;;
47715;SDS011;33476;50.984;3.538;2023-08-20T09:04:14;3.58;;;0.22;;
47715;SDS011;33476;50.984;3.538;2023-08-20T09:06:46;5.95;;;0.30;;
47715;SDS011;33476;50.984;3.538;2023-08-20T09:09:16;4.28;;;0.10;;
47715;SDS011;33476;50.984;3.538;2023-08-20T09:11:43;3.10;;;0.38;;
47715;SDS011;33476;50.984;3.538;2023-08-20T09:14:30;6.10;;;0.20;;
47715;SDS011;33476;50.984;3.538;2023-08-20T09:16:56;1.55;;;0.10;;
47715;SDS011;33476;50.984;3.538;2023-08-20T09:19:23;1.77;;;0.30;;
47715;SDS011;33476;50.984;3.538;2023-08-20T09:21:48;6.63;;;0.30;;
47715;SDS011;33476;50.984;3.538;2023-08-20T09:24:14;6.00;;;0.45;;
47715;SDS011;33476;50.984;3.538;2023-08-20T09:26:44;4.32;;;0.17;;
47715;SDS011;33476;50.984;3.538;2023-08-20T09:29:10;4.70;;;0.30;;
47715;SDS011;33476;50.984;3.538;2023-08-20T09:31:39;2.97;;;0.28;;
47715;SDS011;33476;50.984;3.538;2023-08-20T09:34:05;6.43;;;0.50;;
47715;SDS011;33476;50.984;3.538;2023-08-20T09:36:31;3.00;;;0.30;;
47715;SDS011;33476;50.984;3.538;2023-08-20T09:38:58;2.53;;;0.40;;
47715;SDS011;33476;50.984;3.538;2023-08-20T09:41:24;3.08;;;0.30;;
47715;SDS011;33476;50.984;3.538;2023-08-20T09:43:52;3.03;;;0.40;;
47715;SDS011;33476;50.984;3.538;2023-08-20T09:46:23;4.68;;;0.20;;
47715;SDS011;33476;50.984;3.538;2023-08-20T09:48:50;4.53;;;0.28;;
47715;SDS011;33476;50.984;3.538;2023-08-20T09:51:19;1.38;;;0.10;;
47715;SDS011;33476;50.984;3.538;2023-08-20T09:54:13;5.30;;;0.17;;
47715;SDS011;33476;50.984;3.538;2023-08-20T09:56:46;52.53;;;3.42;;
47715;SDS011;33476;50.984;3.538;2023-08-20T09:59:19;8.15;;;0.40;;
47715;SDS011;33476;50.984;3.538;2023-08-20T10:01:45;1.95;;;0.15;;
47715;SDS011;33476;50.984;3.538;2023-08-20T10:04:12;4.75;;;0.40;;
47715;SDS011;33476;50.984;3.538;2023-08-20T10:06:39;3.72;;;0.30;;
47715;SDS011;33476;50.984;3.538;2023-08-20T10:09:06;1.98;;;0.20;;
47715;SDS011;33476;50.984;3.538;2023-08-20T10:11:32;1.63;;;0.20;;
47715;SDS011;33476;50.984;3.538;2023-08-20T10:13:57;2.13;;;0.17;;
47715;SDS011;33476;50.984;3.538;2023-08-20T10:16:23;4.13;;;0.50;;
47715;SDS011;33476;50.984;3.538;2023-08-20T10:18:49;3.28;;;0.28;;
47715;SDS011;33476;50.984;3.538;2023-08-20T10:21:14;4.15;;;0.30;;
47715;SDS011;33476;50.984;3.538;2023-08-20T10:23:40;2.20;;;0.20;;
47715;SDS011;33476;50.984;3.538;2023-08-20T10:26:07;4.35;;;0.28;;
47715;SDS011;33476;50.984;3.538;2023-08-20T10:28:34;3.03;;;0.30;;
47715;SDS011;33476;50.984;3.538;2023-08-20T10:33:37;3.17;;;0.35;;
47715;SDS011;33476;50.984;3.538;2023-08-20T10:36:13;3.03;;;0.20;;
47715;SDS011;33476;50.984;3.538;2023-08-20T10:38:42;0.73;;;0.10;;
47715;SDS011;33476;50.984;3.538;2023-08-20T10:41:10;1.77;;;0.28;;
47715;SDS011;33476;50.984;3.538;2023-08-20T10:43:39;2.17;;;0.20;;
47715;SDS011;33476;50.984;3.538;2023-08-20T10:48:42;2.10;;;0.13;;
47715;SDS011;33476;50.984;3.538;2023-08-20T10:51:14;1.42;;;0.20;;
47715;SDS011;33476;50.984;3.538;2023-08-20T10:56:38;4.93;;;0.10;;
47715;SDS011;33476;50.984;3.538;2023-08-20T10:59:14;2.85;;;0.20;;
47715;SDS011;33476;50.984;3.538;2023-08-20T11:01:45;3.08;;;0.30;;
47715;SDS011;33476;50.984;3.538;2023-08-20T11:04:11;3.53;;;0.20;;
47715;SDS011;33476;50.984;3.538;2023-08-20T11:06:38;3.20;;;0.20;;
47715;SDS011;33476;50.984;3.538;2023-08-20T11:09:04;2.17;;;0.13;;
47715;SDS011;33476;50.984;3.538;2023-08-20T11:11:30;1.27;;;0.10;;
47715;SDS011;33476;50.984;3.538;2023-08-20T11:13:56;1.83;;;0.10;;
47715;SDS011;33476;50.984;3.538;2023-08-20T11:16:22;2.42;;;0.40;;
47715;SDS011;33476;50.984;3.538;2023-08-20T11:18:47;2.33;;;0.20;;
47715;SDS011;33476;50.984;3.538;2023-08-20T11:21:13;3.80;;;0.25;;
47715;SDS011;33476;50.984;3.538;2023-08-20T11:23:39;2.92;;;0.20;;
47715;SDS011;33476;50.984;3.538;2023-08-20T11:26:07;0.85;;;0.10;;
47715;SDS011;33476;50.984;3.538;2023-08-20T11:28:33;3.25;;;0.22;;
47715;SDS011;33476;50.984;3.538;2023-08-20T11:30:58;1.83;;;0.20;;
47715;SDS011;33476;50.984;3.538;2023-08-20T11:33:26;3.13;;;0.30;;
47715;SDS011;33476;50.984;3.538;2023-08-20T11:35:52;2.60;;;0.20;;
47715;SDS011;33476;50.984;3.538;2023-08-20T11:38:17;2.47;;;0.38;;
47715;SDS011;33476;50.984;3.538;2023-08-20T11:40:44;2.20;;;0.17;;
47715;SDS011;33476;50.984;3.538;2023-08-20T11:43:10;2.65;;;0.20;;
47715;SDS011;33476;50.984;3.538;2023-08-20T11:45:46;2.03;;;0.10;;
47715;SDS011;33476;50.984;3.538;2023-08-20T11:48:13;2.95;;;0.20;;
47715;SDS011;33476;50.984;3.538;2023-08-20T11:50:39;2.03;;;0.28;;
47715;SDS011;33476;50.984;3.538;2023-08-20T11:53:05;1.30;;;0.25;;
47715;SDS011;33476;50.984;3.538;2023-08-20T12:02:15;4.75;;;0.20;;
47715;SDS011;33476;50.984;3.538;2023-08-20T12:04:40;2.47;;;0.20;;
47715;SDS011;33476;50.984;3.538;2023-08-20T12:07:08;3.17;;;0.32;;
47715;SDS011;33476;50.984;3.538;2023-08-20T12:09:35;1.73;;;0.30;;
47715;SDS011;33476;50.984;3.538;2023-08-20T12:12:01;2.08;;;0.30;;
47715;SDS011;33476;50.984;3.538;2023-08-20T12:14:27;2.97;;;0.10;;
47715;SDS011;33476;50.984;3.538;2023-08-20T12:16:55;1.88;;;0.30;;
47715;SDS011;33476;50.984;3.538;2023-08-20T12:19:21;1.10;;;0.20;;
47715;SDS011;33476;50.984;3.538;2023-08-20T12:21:47;1.60;;;0.10;;
47715;SDS011;33476;50.984;3.538;2023-08-20T12:24:13;2.47;;;0.20;;
47715;SDS011;33476;50.984;3.538;2023-08-20T12:26:40;1.52;;;0.10;;
47715;SDS011;33476;50.984;3.538;2023-08-20T12:29:05;2.80;;;0.20;;
47715;SDS011;33476;50.984;3.538;2023-08-20T12:31:31;5.68;;;0.20;;
47715;SDS011;33476;50.984;3.538;2023-08-20T12:33:57;5.40;;;0.20;;
47715;SDS011;33476;50.984;3.538;2023-08-20T12:36:22;2.53;;;0.30;;
47715;SDS011;33476;50.984;3.538;2023-08-20T12:38:48;4.80;;;0.38;;
47715;SDS011;33476;50.984;3.538;2023-08-20T12:41:13;2.35;;;0.10;;
47715;SDS011;33476;50.984;3.538;2023-08-20T12:43:39;3.83;;;0.40;;
47715;SDS011;33476;50.984;3.538;2023-08-20T12:46:05;3.15;;;0.20;;
47715;SDS011;33476;50.984;3.538;2023-08-20T12:48:30;1.58;;;0.30;;
47715;SDS011;33476;50.984;3.538;2023-08-20T12:50:56;1.23;;;0.10;;
47715;SDS011;33476;50.984;3.538;2023-08-20T12:53:22;3.20;;;0.30;;
47715;SDS011;33476;50.984;3.538;2023-08-20T12:55:47;6.32;;;0.30;;
47715;SDS011;33476;50.984;3.538;2023-08-20T12:58:13;3.50;;;0.20;;
47715;SDS011;33476;50.984;3.538;2023-08-20T13:00:38;2.45;;;0.20;;
47715;SDS011;33476;50.984;3.538;2023-08-20T13:03:04;6.28;;;0.20;;
47715;SDS011;33476;50.984;3.538;2023-08-20T13:05:30;3.50;;;0.20;;
47715;SDS011;33476;50.984;3.538;2023-08-20T13:07:56;3.83;;;0.20;;
47715;SDS011;33476;50.984;3.538;2023-08-20T13:10:21;2.72;;;0.20;;
47715;SDS011;33476;50.984;3.538;2023-08-20T13:12:48;2.38;;;0.20;;
47715;SDS011;33476;50.984;3.538;2023-08-20T13:15:17;2.97;;;0.28;;
47715;SDS011;33476;50.984;3.538;2023-08-20T13:17:45;3.08;;;0.40;;
47715;SDS011;33476;50.984;3.538;2023-08-20T13:20:11;2.10;;;0.20;;
47715;SDS011;33476;50.984;3.538;2023-08-20T13:22:36;1.73;;;0.10;;
47715;SDS011;33476;50.984;3.538;2023-08-20T13:25:02;2.05;;;0.20;;
47715;SDS011;33476;50.984;3.538;2023-08-20T13:27:29;2.53;;;0.10;;
47715;SDS011;33476;50.984;3.538;2023-08-20T13:29:55;3.17;;;0.20;;
47715;SDS011;33476;50.984;3.538;2023-08-20T13:32:20;2.10;;;0.20;;
47715;SDS011;33476;50.984;3.538;2023-08-20T13:34:46;3.20;;;0.17;;
47715;SDS011;33476;50.984;3.538;2023-08-20T13:37:11;3.80;;;0.22;;
47715;SDS011;33476;50.984;3.538;2023-08-20T13:39:37;2.33;;;0.10;;
47715;SDS011;33476;50.984;3.538;2023-08-20T13:42:02;2.60;;;0.15;;
47715;SDS011;33476;50.984;3.538;2023-08-20T13:44:27;1.85;;;0.10;;
47715;SDS011;33476;50.984;3.538;2023-08-20T13:46:53;1.70;;;0.22;;
47715;SDS011;33476;50.984;3.538;2023-08-20T13:49:18;3.00;;;0.13;;
47715;SDS011;33476;50.984;3.538;2023-08-20T13:51:43;1.70;;;0.20;;
47715;SDS011;33476;50.984;3.538;2023-08-20T13:54:09;1.95;;;0.10;;
47715;SDS011;33476;50.984;3.538;2023-08-20T13:56:34;1.30;;;0.10;;
47715;SDS011;33476;50.984;3.538;2023-08-20T13:59:00;2.45;;;0.20;;
47715;SDS011;33476;50.984;3.538;2023-08-20T14:01:25;2.45;;;0.17;;
47715;SDS011;33476;50.984;3.538;2023-08-20T14:03:51;1.83;;;0.20;;
47715;SDS011;33476;50.984;3.538;2023-08-20T14:06:17;2.08;;;0.17;;
47715;SDS011;33476;50.984;3.538;2023-08-20T14:08:42;1.90;;;0.30;;
47715;SDS011;33476;50.984;3.538;2023-08-20T14:11:08;3.22;;;0.20;;
47715;SDS011;33476;50.984;3.538;2023-08-20T14:13:34;2.00;;;0.10;;
47715;SDS011;33476;50.984;3.538;2023-08-20T14:15:59;1.63;;;0.20;;
47715;SDS011;33476;50.984;3.538;2023-08-20T14:18:26;1.70;;;0.10;;
47715;SDS011;33476;50.984;3.538;2023-08-20T14:20:51;2.03;;;0.30;;
47715;SDS011;33476;50.984;3.538;2023-08-20T14:23:17;6.53;;;0.35;;
47715;SDS011;33476;50.984;3.538;2023-08-20T14:25:42;4.05;;;0.40;;
47715;SDS011;33476;50.984;3.538;2023-08-20T14:28:08;5.70;;;0.50;;
47715;SDS011;33476;50.984;3.538;2023-08-20T14:30:36;3.75;;;0.30;;
47715;SDS011;33476;50.984;3.538;2023-08-20T14:33:03;3.67;;;0.40;;
47715;SDS011;33476;50.984;3.538;2023-08-20T14:35:29;8.00;;;0.68;;
47715;SDS011;33476;50.984;3.538;2023-08-20T14:37:55;6.45;;;0.32;;
47715;SDS011;33476;50.984;3.538;2023-08-20T14:40:21;4.10;;;0.35;;
47715;SDS011;33476;50.984;3.538;2023-08-20T14:42:46;3.55;;;0.40;;
47715;SDS011;33476;50.984;3.538;2023-08-20T14:45:12;3.90;;;0.60;;
47715;SDS011;33476;50.984;3.538;2023-08-20T14:47:38;4.72;;;0.45;;
47715;SDS011;33476;50.984;3.538;2023-08-20T14:50:04;4.85;;;0.50;;
47715;SDS011;33476;50.984;3.538;2023-08-20T14:52:30;5.90;;;0.40;;
47715;SDS011;33476;50.984;3.538;2023-08-20T14:54:55;2.75;;;0.30;;
47715;SDS011;33476;50.984;3.538;2023-08-20T14:57:21;7.93;;;0.80;;
47715;SDS011;33476;50.984;3.538;2023-08-20T14:59:46;2.00;;;0.30;;